CYLH

Lansdowne House Airport

Lansdowne House, Ontario, Canada
METAR CYLH 221900Z AUTO 33003KT 290V030 9SM OVC007 02/01 A2981 RMK SLP110
Observed Flight Rules
Oct-22 @ 19:00 UTC (12 minutes ago) Instrument Flight Rules
Wind Visibility Clouds
330° at 3 knots 9 miles
  • Overcast at 700' AGL
Temperatures Readings
Current 2°C / 36°F
Dewpoint 1°C / 34°F
Humidity 93%
Altimeter 29.81" Hg
Pressure 1011 hPa
Elevation 254
METAR CYLH 221900Z AUTO 33003KT 290V030 9SM OVC007 02/01 A2981 RMK SLP110
Observed Flight Rules
Oct-22 @ 19:00 UTC
(12 minutes ago)
IFR
Wind Visibility
330° at 3 knots 9 miles
Clouds
  • Overcast at 700' AGL
Temperature Dewpoint
2°C / 36°F 1°C / 34°F
Humidity Altimeter Pressure
93% 29.81" Hg 1011 hPa